Time;durP1;ratioP1;P1;durP2;ratioP2;P2;SDS_P1;SDS_P2;PMS_P1;PMS_P2;Temp;Humidity;BMP_temperature;BMP_pressure;BME280_temperature;BME280_humidity;BME280_pressure;Samples;Min_cycle;Max_cycle;Signal;HPM_P1;HPM_P2
2021/04/30 00:01:50;;;;;;;67.80;53.40;;;7.80;98.20;;;;;;5099183;28;20048;-39
2021/04/30 00:04:16;;;;;;;68.05;55.40;;;7.80;98.30;;;;;;5096780;28;20084;-39
2021/04/30 00:06:46;;;;;;;71.50;57.15;;;7.80;98.30;;;;;;5099037;28;20715;-39
2021/04/30 00:09:13;;;;;;;73.40;54.08;;;7.80;98.40;;;;;;5083287;28;20059;-39
2021/04/30 00:11:41;;;;;;;78.63;59.45;;;7.70;98.40;;;;;;5100670;28;20055;-40
2021/04/30 00:14:10;;;;;;;76.00;57.08;;;7.70;98.40;;;;;;5090876;28;20586;-39
2021/04/30 00:16:39;;;;;;;76.43;58.35;;;7.70;98.40;;;;;;5105670;28;20411;-39
2021/04/30 00:19:07;;;;;;;83.43;63.05;;;7.70;98.60;;;;;;5102551;28;20662;-39
2021/04/30 00:21:35;;;;;;;84.00;61.53;;;7.70;98.60;;;;;;5096799;28;20066;-39
2021/04/30 00:24:02;;;;;;;80.57;59.80;;;7.70;98.60;;;;;;5098098;28;20659;-39
2021/04/30 00:26:29;;;;;;;82.28;61.33;;;7.70;98.60;;;;;;5086439;28;20051;-39
2021/04/30 00:28:58;;;;;;;89.72;63.95;;;7.70;98.60;;;;;;5087567;28;20490;-39
2021/04/30 00:31:24;;;;;;;87.97;63.75;;;7.80;98.70;;;;;;5088428;28;20040;-39
2021/04/30 00:33:50;;;;;;;80.00;58.25;;;7.70;98.70;;;;;;5100027;28;20040;-39
2021/04/30 00:36:16;;;;;;;79.47;57.67;;;7.70;98.60;;;;;;5086826;28;20047;-39
2021/04/30 00:38:42;;;;;;;87.65;62.47;;;7.70;98.70;;;;;;5091937;28;20047;-39
2021/04/30 00:41:09;;;;;;;91.57;63.45;;;7.60;98.80;;;;;;5093129;28;20120;-39
2021/04/30 00:43:51;;;;;;;81.03;60.53;;;7.60;98.80;;;;;;5095812;28;20474;-40
2021/04/30 00:46:17;;;;;;;78.78;61.28;;;7.60;98.80;;;;;;5103008;28;20051;-40
2021/04/30 00:48:44;;;;;;;82.25;61.55;;;7.60;98.80;;;;;;5085980;28;20058;-39
2021/04/30 00:51:16;;;;;;;77.40;59.92;;;7.50;98.70;;;;;;5094837;28;20047;-39
2021/04/30 00:53:44;;;;;;;83.82;63.78;;;7.50;98.70;;;;;;5097017;28;20060;-39
2021/04/30 00:56:14;;;;;;;92.22;63.60;;;7.50;98.90;;;;;;5091985;28;20454;-39
2021/04/30 00:58:40;;;;;;;83.38;62.90;;;7.50;99.00;;;;;;5086466;28;20090;-39
2021/04/30 01:01:07;;;;;;;88.22;63.10;;;7.40;99.10;;;;;;5094476;28;20389;-39
2021/04/30 01:03:36;;;;;;;82.50;61.53;;;7.40;99.10;;;;;;5089080;28;20059;-39
2021/04/30 01:06:03;;;;;;;81.10;59.88;;;7.40;99.00;;;;;;5100488;28;20409;-39
2021/04/30 01:08:29;;;;;;;88.30;61.70;;;7.40;99.10;;;;;;5101186;28;20055;-39
2021/04/30 01:10:55;;;;;;;77.50;59.92;;;7.40;99.20;;;;;;5102119;28;20131;-39
2021/04/30 01:13:21;;;;;;;94.18;63.10;;;7.30;99.20;;;;;;5091175;28;20101;-39
2021/04/30 01:15:47;;;;;;;86.57;60.40;;;7.30;99.10;;;;;;5111432;28;21074;-39
2021/04/30 01:18:14;;;;;;;81.20;60.08;;;7.30;99.10;;;;;;5101510;28;20180;-39
2021/04/30 01:20:42;;;;;;;84.90;62.08;;;7.20;99.10;;;;;;5101452;28;20096;-39
2021/04/30 01:23:10;;;;;;;82.30;60.05;;;7.20;99.10;;;;;;5101036;28;20119;-39
2021/04/30 01:25:38;;;;;;;91.38;61.95;;;7.20;99.10;;;;;;5095445;28;20035;-39
2021/04/30 01:28:08;;;;;;;85.95;62.03;;;7.20;99.20;;;;;;5094294;28;20946;-39
2021/04/30 01:30:36;;;;;;;83.68;61.80;;;7.10;99.20;;;;;;5105349;28;20067;-39
2021/04/30 01:33:04;;;;;;;88.75;62.65;;;7.10;99.20;;;;;;5095345;28;20139;-39
2021/04/30 01:35:32;;;;;;;87.90;58.83;;;7.00;99.30;;;;;;5085234;28;20052;-40
2021/04/30 01:38:00;;;;;;;81.40;59.75;;;7.00;99.40;;;;;;5094293;28;20052;-39
2021/04/30 01:40:34;;;;;;;91.03;62.00;;;7.00;99.40;;;;;;5098621;28;20048;-39
2021/04/30 01:43:15;;;;;;;87.93;60.55;;;6.90;99.30;;;;;;5098421;28;20075;-39
2021/04/30 01:45:52;;;;;;;77.47;58.65;;;6.90;99.40;;;;;;5102819;28;20047;-39
2021/04/30 01:48:21;;;;;;;75.13;57.83;;;6.90;99.40;;;;;;5101924;28;20062;-39
2021/04/30 01:50:51;;;;;;;83.38;57.78;;;6.90;99.50;;;;;;5098721;28;20114;-39
2021/04/30 01:53:21;;;;;;;76.50;57.63;;;6.80;99.30;;;;;;5100965;28;20059;-39
2021/04/30 01:55:48;;;;;;;83.35;58.58;;;6.80;99.40;;;;;;5095196;28;20139;-39
2021/04/30 01:58:16;;;;;;;79.05;61.38;;;6.80;99.40;;;;;;5098613;28;20507;-39
2021/04/30 02:00:44;;;;;;;77.18;58.03;;;6.80;99.60;;;;;;5089031;28;20040;-39
2021/04/30 02:03:10;;;;;;;83.30;60.58;;;6.80;99.60;;;;;;5087087;28;20052;-40
2021/04/30 02:05:40;;;;;;;78.72;59.58;;;6.80;99.70;;;;;;5092607;28;20044;-39
2021/04/30 02:08:15;;;;;;;85.00;60.90;;;6.90;99.70;;;;;;5089774;28;20445;-39
2021/04/30 02:10:43;;;;;;;86.28;63.85;;;6.90;99.80;;;;;;5099121;28;20047;-39
2021/04/30 02:13:10;;;;;;;83.25;57.42;;;6.90;99.80;;;;;;5090348;28;20047;-39
2021/04/30 02:15:41;;;;;;;72.32;55.10;;;6.90;99.80;;;;;;5094792;28;20385;-39
2021/04/30 02:18:23;;;;;;;81.88;56.55;;;7.00;99.70;;;;;;5103896;28;20032;-40
2021/04/30 02:20:50;;;;;;;75.03;57.25;;;7.00;99.70;;;;;;5096181;28;20399;-39
2021/04/30 02:23:17;;;;;;;76.07;54.33;;;7.00;99.70;;;;;;5095086;28;20077;-39
2021/04/30 02:25:45;;;;;;;70.32;54.00;;;7.00;99.60;;;;;;5082079;28;20040;-39
2021/04/30 02:28:11;;;;;;;65.45;53.72;;;7.10;99.50;;;;;;5099506;28;20384;-40
2021/04/30 02:30:41;;;;;;;65.95;53.30;;;7.00;99.40;;;;;;5098215;28;20047;-39
2021/04/30 02:33:09;;;;;;;68.15;54.03;;;7.10;99.40;;;;;;5097002;28;20043;-39
2021/04/30 02:35:40;;;;;;;60.22;53.08;;;7.10;99.30;;;;;;5093345;28;20143;-39
2021/04/30 02:38:08;;;;;;;67.28;51.85;;;7.10;99.30;;;;;;5095755;28;20128;-39
2021/04/30 02:40:39;;;;;;;60.30;49.38;;;7.10;99.30;;;;;;5092923;28;20159;-39
2021/04/30 02:43:07;;;;;;;60.47;49.47;;;7.10;99.30;;;;;;5092883;28;20117;-39
2021/04/30 02:45:34;;;;;;;57.38;46.63;;;7.10;99.30;;;;;;5095103;28;20044;-40
2021/04/30 02:48:01;;;;;;;56.83;49.33;;;7.10;99.20;;;;;;5100475;28;20499;-39
2021/04/30 02:50:31;;;;;;;59.65;50.60;;;7.10;99.20;;;;;;5102804;28;20126;-39
2021/04/30 02:52:57;;;;;;;57.38;46.00;;;7.10;99.10;;;;;;5102199;28;20415;-39
2021/04/30 02:55:25;;;;;;;54.65;47.42;;;7.00;99.00;;;;;;5098560;28;20043;-40
2021/04/30 02:57:56;;;;;;;59.15;49.35;;;7.00;99.00;;;;;;5100111;28;20048;-39
2021/04/30 03:00:26;;;;;;;54.65;47.83;;;7.00;99.00;;;;;;5113266;28;20559;-40
2021/04/30 03:02:53;;;;;;;51.45;42.55;;;7.00;98.90;;;;;;5099716;28;20044;-39
2021/04/30 03:05:20;;;;;;;55.72;48.22;;;6.90;98.80;;;;;;5092825;28;20601;-39
2021/04/30 03:07:47;;;;;;;58.03;45.88;;;6.90;98.80;;;;;;5095581;28;20055;-39
2021/04/30 03:10:14;;;;;;;59.63;47.10;;;6.90;98.80;;;;;;5098735;28;20044;-39
2021/04/30 03:12:40;;;;;;;54.58;47.40;;;6.90;98.80;;;;;;5099365;28;20040;-39
2021/04/30 03:15:08;;;;;;;54.15;45.78;;;6.80;98.80;;;;;;5099908;28;20154;-40
2021/04/30 03:17:36;;;;;;;54.03;48.13;;;6.70;98.70;;;;;;5099364;28;20048;-39
2021/04/30 03:20:03;;;;;;;60.97;48.22;;;6.70;98.70;;;;;;5091373;28;20135;-39
2021/04/30 03:22:29;;;;;;;54.40;46.45;;;6.70;98.70;;;;;;5094182;28;20135;-39
2021/04/30 03:24:55;;;;;;;61.70;47.60;;;6.70;98.90;;;;;;5096792;28;20054;-39
2021/04/30 03:27:26;;;;;;;60.42;46.88;;;6.70;99.00;;;;;;5086207;28;20492;-40
2021/04/30 03:29:53;;;;;;;60.22;47.90;;;6.70;99.10;;;;;;5088756;28;20044;-39
2021/04/30 03:32:23;;;;;;;63.08;51.30;;;6.70;99.20;;;;;;5107386;28;20513;-39
2021/04/30 03:34:49;;;;;;;61.25;48.70;;;6.70;99.30;;;;;;5096449;28;20634;-39
2021/04/30 03:37:17;;;;;;;66.20;50.30;;;6.70;99.30;;;;;;5087547;28;20063;-39
2021/04/30 03:39:43;;;;;;;57.85;47.63;;;6.70;99.40;;;;;;5091497;28;20048;-39
2021/04/30 03:42:19;;;;;;;51.05;43.05;;;6.70;99.40;;;;;;5096958;28;20070;-39
2021/04/30 03:44:48;;;;;;;55.67;48.45;;;6.70;99.30;;;;;;5100106;28;20469;-39
2021/04/30 03:47:14;;;;;;;58.13;47.65;;;6.60;99.30;;;;;;5099624;28;20048;-39
2021/04/30 03:50:00;;;;;;;62.30;48.50;;;6.70;99.20;;;;;;5091607;28;20056;-39
2021/04/30 03:52:37;;;;;;;61.55;49.60;;;6.60;99.10;;;;;;5095532;28;20051;-39
2021/04/30 03:55:04;;;;;;;60.45;46.70;;;6.60;99.10;;;;;;5092991;28;20050;-39
2021/04/30 03:57:30;;;;;;;55.55;48.03;;;6.60;99.10;;;;;;5095558;28;20086;-39
2021/04/30 03:59:58;;;;;;;55.75;47.05;;;6.70;99.20;;;;;;5095680;28;20047;-39
2021/04/30 04:02:27;;;;;;;56.53;43.60;;;6.70;99.30;;;;;;5093642;28;20796;-39
2021/04/30 04:04:55;;;;;;;61.42;45.92;;;6.60;99.10;;;;;;5102034;28;20097;-40
2021/04/30 04:07:21;;;;;;;53.17;44.80;;;6.70;99.20;;;;;;5089837;28;20480;-39
2021/04/30 04:09:47;;;;;;;58.67;48.30;;;6.60;99.20;;;;;;5100100;28;20624;-40
2021/04/30 04:12:17;;;;;;;59.38;48.97;;;6.70;99.20;;;;;;5100906;28;20775;-39
2021/04/30 04:14:43;;;;;;;66.50;51.63;;;6.70;99.30;;;;;;5103001;28;20109;-39
2021/04/30 04:17:09;;;;;;;60.25;49.20;;;6.80;99.20;;;;;;5089985;28;20056;-39
2021/04/30 04:19:38;;;;;;;59.92;50.20;;;6.80;99.20;;;;;;5095326;28;20048;-39
2021/04/30 04:22:04;;;;;;;62.20;49.38;;;6.80;99.20;;;;;;5093135;28;20048;-40
2021/04/30 04:24:30;;;;;;;55.95;47.30;;;6.90;99.20;;;;;;5097944;28;20064;-39
2021/04/30 04:26:56;;;;;;;58.15;47.22;;;6.80;99.10;;;;;;5094048;28;20399;-39
2021/04/30 04:29:22;;;;;;;52.75;45.83;;;6.90;99.10;;;;;;5093498;28;20051;-40
2021/04/30 04:31:49;;;;;;;59.58;45.85;;;6.90;99.10;;;;;;5106075;28;20075;-40
2021/04/30 04:34:16;;;;;;;49.70;40.60;;;6.90;99.10;;;;;;5095915;28;20076;-39
2021/04/30 04:36:44;;;;;;;61.05;48.47;;;6.90;99.00;;;;;;5099204;28;20051;-39
2021/04/30 04:39:10;;;;;;;59.65;47.78;;;6.90;99.00;;;;;;5103698;28;20059;-40
2021/04/30 04:41:36;;;;;;;61.45;49.90;;;6.90;99.00;;;;;;5092501;28;20052;-39
2021/04/30 04:44:02;;;;;;;56.05;46.90;;;6.90;99.10;;;;;;5096775;28;20047;-39
2021/04/30 04:46:30;;;;;;;57.78;48.25;;;6.90;99.00;;;;;;5097894;28;20048;-39
2021/04/30 04:48:56;;;;;;;55.53;49.45;;;6.90;99.30;;;;;;5092293;28;20089;-39
2021/04/30 04:51:23;;;;;;;59.10;48.78;;;7.00;99.00;;;;;;5097099;28;20101;-39
2021/04/30 04:53:52;;;;;;;56.70;48.50;;;7.00;99.10;;;;;;5097445;28;20053;-39
2021/04/30 04:56:19;;;;;;;60.70;48.42;;;7.00;99.10;;;;;;5095026;28;20155;-40
2021/04/30 04:58:49;;;;;;;63.40;50.10;;;7.10;99.20;;;;;;5094423;28;20392;-39
2021/04/30 05:01:15;;;;;;;63.70;48.40;;;7.20;99.20;;;;;;5104115;28;20051;-40
2021/04/30 05:03:42;;;;;;;56.85;49.45;;;7.20;99.20;;;;;;5097990;28;20858;-40
2021/04/30 05:06:08;;;;;;;53.55;46.72;;;7.20;99.20;;;;;;5093793;28;20047;-40
2021/04/30 05:08:35;;;;;;;54.85;47.10;;;7.30;99.20;;;;;;5097624;28;20054;-40
2021/04/30 05:11:03;;;;;;;61.47;50.10;;;7.30;99.10;;;;;;5087567;28;20498;-40
2021/04/30 05:13:33;;;;;;;54.03;47.40;;;7.40;99.20;;;;;;5093754;28;20039;-39
2021/04/30 05:16:03;;;;;;;57.22;48.63;;;7.40;99.10;;;;;;5099131;28;20051;-40
2021/04/30 05:18:33;;;;;;;56.75;48.25;;;7.40;99.10;;;;;;5093757;28;20048;-41
2021/04/30 05:21:02;;;;;;;62.88;48.70;;;7.40;99.10;;;;;;5096398;28;20052;-39
2021/04/30 05:23:28;;;;;;;60.35;49.22;;;7.50;99.10;;;;;;5094597;28;20906;-38
2021/04/30 05:25:55;;;;;;;60.28;49.45;;;7.50;99.00;;;;;;5095568;28;20502;-38
2021/04/30 05:28:28;;;;;;;80.15;63.67;;;7.50;99.00;;;;;;5094663;28;20052;-37
2021/04/30 05:30:57;;;;;;;60.65;50.35;;;7.70;99.00;;;;;;5098309;28;20044;-40
2021/04/30 05:33:26;;;;;;;55.53;47.63;;;7.70;98.90;;;;;;5098499;28;20054;-38
2021/04/30 05:35:54;;;;;;;56.50;48.00;;;7.80;98.80;;;;;;5104523;28;20074;-38
2021/04/30 05:38:23;;;;;;;58.00;48.63;;;7.90;98.80;;;;;;5101168;28;20055;-39
2021/04/30 05:40:49;;;;;;;68.80;60.28;;;7.90;98.70;;;;;;5103638;28;20063;-39
2021/04/30 05:43:20;;;;;;;61.00;54.33;;;8.00;98.70;;;;;;5084351;28;20503;-39
2021/04/30 05:45:50;;;;;;;52.83;45.80;;;8.00;98.60;;;;;;5104397;28;20046;-39
2021/04/30 05:48:22;;;;;;;54.72;46.20;;;8.00;98.50;;;;;;5104674;28;20066;-39
2021/04/30 05:50:50;;;;;;;54.23;47.30;;;8.00;98.50;;;;;;5107772;28;20446;-39
2021/04/30 05:53:22;;;;;;;51.45;45.45;;;8.00;98.50;;;;;;5104815;28;20056;-39
2021/04/30 05:55:48;;;;;;;;;;;8.00;98.50;;;;;;5105701;28;20052;-40
2021/04/30 05:58:17;;;;;;;68.40;57.20;;;8.00;98.50;;;;;;5106726;28;19920;-39
2021/04/30 06:00:45;;;;;;;57.13;46.83;;;8.00;98.60;;;;;;5107076;28;20051;-40
2021/04/30 06:03:11;;;;;;;66.50;49.50;;;8.10;98.60;;;;;;5105051;28;20052;-39
2021/04/30 06:05:40;;;;;;;59.42;48.17;;;8.10;98.60;;;;;;5114823;28;20044;-40
2021/04/30 06:08:10;;;;;;;61.42;48.25;;;8.20;98.60;;;;;;5106958;28;20056;-39
2021/04/30 06:10:39;;;;;;;55.47;48.13;;;8.20;98.60;;;;;;5106937;28;20074;-39
2021/04/30 06:13:06;;;;;;;56.03;46.20;;;8.30;98.60;;;;;;5104988;28;20054;-39
2021/04/30 06:15:37;;;;;;;51.85;44.10;;;8.40;98.60;;;;;;5104339;28;20135;-39
2021/04/30 06:18:03;;;;;;;68.18;57.83;;;8.40;98.50;;;;;;5113366;28;20119;-39
2021/04/30 06:20:32;;;;;;;74.50;62.72;;;8.50;98.40;;;;;;5107914;28;20077;-40
2021/04/30 06:23:01;;;;;;;56.38;45.78;;;8.50;98.20;;;;;;5108409;28;20051;-39
2021/04/30 06:25:32;;;;;;;52.85;43.03;;;8.60;98.30;;;;;;5090813;28;20143;-39
2021/04/30 06:28:01;;;;;;;49.90;41.20;;;8.60;98.20;;;;;;5108397;28;20087;-38
2021/04/30 06:30:27;;;;;;;50.33;42.95;;;8.60;98.10;;;;;;5108712;28;20045;-38
2021/04/30 06:32:53;;;;;;;51.10;42.45;;;8.60;98.10;;;;;;5108717;28;20055;-38
2021/04/30 06:35:21;;;;;;;50.53;41.35;;;8.70;98.10;;;;;;5108311;28;20093;-38
2021/04/30 06:37:50;;;;;;;51.80;41.45;;;8.70;98.00;;;;;;5107552;28;20043;-38
2021/04/30 06:40:19;;;;;;;55.90;40.60;;;8.70;98.00;;;;;;5105843;28;20051;-38
2021/04/30 06:42:45;;;;;;;60.33;44.97;;;8.80;98.00;;;;;;5107580;28;20785;-38
2021/04/30 06:45:12;;;;;;;58.47;42.08;;;8.80;97.90;;;;;;5106245;28;20052;-38
2021/04/30 06:47:38;;;;;;;51.53;42.53;;;8.90;97.90;;;;;;5108113;28;20088;-39
2021/04/30 06:50:05;;;;;;;55.10;42.50;;;9.00;98.00;;;;;;5106020;28;20067;-38
2021/04/30 06:52:31;;;;;;;54.65;40.25;;;9.20;98.10;;;;;;5103236;28;20131;-38
2021/04/30 06:54:57;;;;;;;47.53;40.17;;;9.20;97.70;;;;;;5114510;28;20032;-38
2021/04/30 06:57:27;;;;;;;45.78;38.25;;;9.40;97.70;;;;;;5102832;28;20051;-39
2021/04/30 06:59:53;;;;;;;50.67;40.13;;;9.50;97.60;;;;;;5104648;28;20927;-38
2021/04/30 07:02:24;;;;;;;39.88;35.42;;;9.50;97.50;;;;;;5106407;28;20159;-37
2021/04/30 07:04:51;;;;;;;48.38;41.70;;;9.60;96.80;;;;;;5105734;28;20764;-38
2021/04/30 07:07:17;;;;;;;42.45;32.10;;;9.60;96.80;;;;;;5076893;28;20052;-38
2021/04/30 07:09:44;;;;;;;73.18;61.10;;;9.70;96.70;;;;;;5101806;28;20128;-39
2021/04/30 07:12:10;;;;;;;58.20;48.47;;;9.70;96.90;;;;;;5103767;28;20124;-38
2021/04/30 07:14:36;;;;;;;43.88;35.60;;;9.80;96.90;;;;;;5099395;28;20052;-39
2021/04/30 07:17:02;;;;;;;41.20;32.10;;;9.80;96.50;;;;;;5102638;28;20496;-38
2021/04/30 07:19:28;;;;;;;41.67;33.13;;;9.80;96.30;;;;;;5104827;28;20139;-39
2021/04/30 07:21:57;;;;;;;38.97;29.30;;;9.90;96.20;;;;;;5104014;28;20054;-38
2021/04/30 07:24:25;;;;;;;33.58;28.33;;;9.80;95.90;;;;;;5104954;28;20052;-39
2021/04/30 07:26:51;;;;;;;40.50;29.77;;;9.80;95.80;;;;;;5096445;28;20674;-39
2021/04/30 07:29:18;;;;;;;34.92;28.70;;;9.90;96.00;;;;;;5104044;28;20048;-39
2021/04/30 07:31:55;;;;;;;39.85;30.17;;;9.90;95.70;;;;;;5106891;28;20047;-39
2021/04/30 07:34:21;;;;;;;40.33;28.05;;;10.10;95.70;;;;;;5103941;28;20039;-39
2021/04/30 07:36:49;;;;;;;37.88;27.27;;;10.00;95.50;;;;;;5102544;28;20105;-39
2021/04/30 07:39:16;;;;;;;35.63;29.10;;;10.10;95.00;;;;;;5104521;28;20047;-43
2021/04/30 07:41:42;;;;;;;35.47;27.60;;;10.10;94.60;;;;;;5101330;28;20515;-45
2021/04/30 07:44:09;;;;;;;35.13;26.70;;;10.20;94.60;;;;;;5106536;28;20098;-44
2021/04/30 07:46:35;;;;;;;85.05;72.07;;;10.20;94.50;;;;;;5105794;28;20097;-47
2021/04/30 07:49:04;;;;;;;26.38;22.02;;;10.30;94.30;;;;;;5104889;28;20051;-44
2021/04/30 07:51:31;;;;;;;29.05;24.98;;;10.30;93.90;;;;;;5109514;28;20494;-46
2021/04/30 07:53:59;;;;;;;31.58;24.45;;;10.50;94.40;;;;;;5103616;28;20051;-45
2021/04/30 07:56:25;;;;;;;34.65;29.45;;;10.60;94.30;;;;;;5103783;28;20047;-44
2021/04/30 07:58:51;;;;;;;32.15;25.80;;;10.80;94.20;;;;;;5085167;28;20092;-44
2021/04/30 08:01:17;;;;;;;29.98;21.65;;;10.90;93.70;;;;;;5104233;28;20078;-41
2021/04/30 08:03:46;;;;;;;26.52;23.27;;;11.00;93.30;;;;;;5105694;28;20044;-45
2021/04/30 08:06:12;;;;;;;27.48;20.48;;;11.30;93.40;;;;;;5110038;28;20061;-45
2021/04/30 08:08:40;;;;;;;26.15;19.52;;;11.20;91.70;;;;;;5105873;28;20052;-44
2021/04/30 08:11:09;;;;;;;28.02;18.75;;;11.40;92.20;;;;;;5103897;28;20073;-45
2021/04/30 08:13:36;;;;;;;26.92;20.08;;;11.40;91.20;;;;;;5104823;28;20043;-43
2021/04/30 08:16:03;;;;;;;28.15;21.23;;;11.60;91.60;;;;;;5100008;28;20046;-42
2021/04/30 08:18:32;;;;;;;22.02;19.13;;;11.80;92.10;;;;;;5102528;28;20515;-42
2021/04/30 08:21:00;;;;;;;28.83;20.20;;;12.10;90.70;;;;;;5104263;28;20054;-43
2021/04/30 08:23:27;;;;;;;21.50;18.15;;;12.60;90.90;;;;;;5104783;28;20177;-44
2021/04/30 08:25:59;;;;;;;41.15;32.08;;;13.10;90.40;;;;;;5101122;28;20043;-42
2021/04/30 08:28:25;;;;;;;;;;;13.60;89.80;;;;;;5105487;28;20054;-43
2021/04/30 08:30:53;;;;;;;18.83;16.83;;;13.70;81.30;;;;;;5105334;28;19928;-43
2021/04/30 08:33:24;;;;;;;24.98;19.67;;;13.90;87.60;;;;;;5106981;28;20054;-45
2021/04/30 08:35:51;;;;;;;29.55;25.83;;;13.70;87.30;;;;;;5105695;28;20490;-43
2021/04/30 08:38:18;;;;;;;17.33;15.15;;;13.80;87.60;;;;;;5102801;28;20051;-44
2021/04/30 08:40:47;;;;;;;17.63;15.73;;;13.80;85.10;;;;;;5104865;28;20407;-44
2021/04/30 08:43:17;;;;;;;32.15;27.95;;;13.70;81.70;;;;;;5105653;28;20155;-41
2021/04/30 08:45:43;;;;;;;18.70;16.02;;;13.70;84.70;;;;;;5111798;28;20042;-43
2021/04/30 08:48:13;;;;;;;23.20;20.83;;;13.70;80.60;;;;;;5102963;28;20456;-45
2021/04/30 08:50:41;;;;;;;65.63;58.45;;;13.70;81.30;;;;;;5104656;28;20040;-45
2021/04/30 08:53:08;;;;;;;49.28;43.60;;;13.90;80.00;;;;;;5104273;28;20051;-44
2021/04/30 08:55:34;;;;;;;18.88;16.52;;;14.10;80.60;;;;;;5104022;28;20118;-43
2021/04/30 08:58:05;;;;;;;22.83;19.48;;;14.70;79.80;;;;;;5103743;28;20064;-43
2021/04/30 09:00:31;;;;;;;17.17;13.30;;;15.50;80.30;;;;;;5096751;28;20050;-46
2021/04/30 09:02:59;;;;;;;25.08;22.50;;;16.20;77.10;;;;;;5085710;28;20072;-45
2021/04/30 09:05:30;;;;;;;17.35;13.75;;;16.70;78.10;;;;;;5106733;28;20036;-47
2021/04/30 09:07:59;;;;;;;21.75;19.58;;;16.90;75.20;;;;;;5083334;28;20048;-47
2021/04/30 09:10:36;;;;;;;16.42;14.65;;;17.10;68.30;;;;;;5099827;28;20047;-44
2021/04/30 09:13:11;;;;;;;17.73;15.88;;;17.10;59.90;;;;;;5098298;28;20079;-43
2021/04/30 09:15:41;;;;;;;14.23;12.05;;;17.60;70.70;;;;;;5095149;28;20039;-43
2021/04/30 09:18:32;;;;;;;16.17;11.65;;;17.60;70.30;;;;;;5100457;28;20043;-46
2021/04/30 09:21:16;;;;;;;24.48;20.98;;;17.00;62.70;;;;;;5099108;28;20047;-43
2021/04/30 09:23:46;;;;;;;13.73;10.48;;;16.90;65.00;;;;;;5099931;28;20047;-43
2021/04/30 09:26:31;;;;;;;12.70;11.30;;;16.50;66.70;;;;;;5093203;28;20071;-42
2021/04/30 09:29:04;;;;;;;19.38;17.15;;;16.20;65.00;;;;;;5102125;28;20126;-42
2021/04/30 09:31:45;;;;;;;17.00;15.13;;;16.20;68.80;;;;;;5101348;28;20074;-45
2021/04/30 09:34:24;;;;;;;15.48;13.48;;;16.10;71.20;;;;;;5102916;28;20094;-43
2021/04/30 09:37:17;;;;;;;37.38;33.30;;;15.60;65.00;;;;;;5099248;28;20056;-43
2021/04/30 09:39:47;;;;;;;13.43;12.02;;;15.60;67.00;;;;;;5101758;28;20048;-44
2021/04/30 09:42:18;;;;;;;16.77;14.40;;;15.50;65.50;;;;;;5099100;28;20131;-43
2021/04/30 09:44:57;;;;;;;15.80;12.50;;;15.60;68.60;;;;;;5102756;28;20043;-43
2021/04/30 09:47:26;;;;;;;12.50;10.68;;;15.50;65.80;;;;;;5101180;28;20063;-41
2021/04/30 09:49:58;;;;;;;29.58;25.48;;;15.50;64.50;;;;;;5106509;28;20039;-41
2021/04/30 09:52:26;;;;;;;40.00;34.63;;;15.40;62.70;;;;;;5100537;28;20078;-42
2021/04/30 09:54:54;;;;;;;15.45;13.55;;;15.40;66.50;;;;;;5103131;28;20039;-43
2021/04/30 09:57:25;;;;;;;12.75;10.88;;;15.30;66.20;;;;;;5096602;28;20051;-42
2021/04/30 09:59:56;;;;;;;13.82;12.07;;;15.20;65.90;;;;;;5102708;28;20089;-43
2021/04/30 10:02:24;;;;;;;13.68;11.07;;;15.20;65.60;;;;;;5095749;28;20135;-41
2021/04/30 10:04:53;;;;;;;13.90;11.18;;;15.10;65.70;;;;;;5098655;28;20234;-42
2021/04/30 10:07:28;;;;;;;18.77;15.00;;;14.60;64.40;;;;;;5097183;28;20054;-43
2021/04/30 10:10:10;;;;;;;14.15;12.75;;;14.60;65.90;;;;;;5104519;28;20135;-42
2021/04/30 10:12:46;;;;;;;15.13;13.68;;;14.50;69.10;;;;;;5084750;28;20046;-42
2021/04/30 10:15:19;;;;;;;15.77;13.32;;;14.60;68.60;;;;;;5103864;28;20043;-42
2021/04/30 10:17:47;;;;;;;18.55;15.65;;;14.30;67.80;;;;;;5108449;28;20559;-42
2021/04/30 10:20:16;;;;;;;16.65;12.13;;;14.20;68.70;;;;;;5102679;28;20080;-42
2021/04/30 10:22:44;;;;;;;16.05;13.23;;;14.20;69.20;;;;;;5101907;28;20045;-41
2021/04/30 10:25:17;;;;;;;15.45;13.75;;;14.10;70.10;;;;;;5103203;28;20047;-41
2021/04/30 10:27:55;;;;;;;14.18;12.30;;;14.10;69.70;;;;;;5098571;28;20052;-42
2021/04/30 10:30:46;;;;;;;25.80;21.55;;;14.10;69.00;;;;;;5103783;28;20074;-42
2021/04/30 10:33:20;;;;;;;60.50;48.17;;;14.20;67.40;;;;;;5112622;28;20048;-41
2021/04/30 10:36:16;;;;;;;43.65;35.10;;;14.30;69.00;;;;;;5103803;28;20043;-42
2021/04/30 10:38:51;;;;;;;16.48;14.70;;;14.50;68.70;;;;;;5100447;28;20048;-41
2021/04/30 10:41:40;;;;;;;14.60;11.85;;;14.50;69.50;;;;;;5101878;28;20047;-41
2021/04/30 10:44:29;;;;;;;16.83;13.40;;;14.50;68.70;;;;;;5101152;28;20484;-42
2021/04/30 10:47:09;;;;;;;13.48;12.07;;;14.60;68.70;;;;;;5087580;28;20054;-42
2021/04/30 10:49:45;;;;;;;33.95;30.48;;;14.80;70.20;;;;;;5083349;28;20054;-41
2021/04/30 10:52:24;;;;;;;21.92;19.33;;;15.00;69.90;;;;;;5106584;28;20587;-43
2021/04/30 10:55:09;;;;;;;17.10;12.30;;;15.10;67.90;;;;;;5097542;28;20097;-44
2021/04/30 10:57:54;;;;;;;15.00;12.70;;;15.00;65.10;;;;;;5094732;28;20048;-41
2021/04/30 11:00:26;;;;;;;19.23;17.23;;;15.00;64.70;;;;;;5102216;28;20559;-46
2021/04/30 11:03:16;;;;;;;14.48;12.88;;;14.80;65.70;;;;;;5085977;28;20071;-41
2021/04/30 11:06:04;;;;;;;20.70;18.50;;;14.60;62.70;;;;;;5109322;28;20081;-41
2021/04/30 11:08:51;;;;;;;13.02;11.73;;;14.70;67.10;;;;;;5098194;28;20051;-41
2021/04/30 11:11:34;;;;;;;15.63;12.57;;;14.70;67.00;;;;;;5092784;28;20047;-42
2021/04/30 11:14:27;;;;;;;20.13;17.60;;;14.60;66.50;;;;;;5087515;28;20100;-43
2021/04/30 11:16:58;;;;;;;13.98;12.50;;;14.50;68.40;;;;;;5107325;28;20043;-43
2021/04/30 11:19:31;;;;;;;13.57;11.25;;;14.50;68.60;;;;;;5105079;28;20051;-41
2021/04/30 11:22:14;;;;;;;15.68;12.65;;;14.30;69.00;;;;;;5103049;28;20052;-43
2021/04/30 11:24:50;;;;;;;14.05;11.95;;;14.20;67.70;;;;;;5100880;28;20095;-41
2021/04/30 11:27:37;;;;;;;13.45;11.80;;;13.90;68.50;;;;;;5090830;28;20035;-44
2021/04/30 11:30:20;;;;;;;16.02;13.10;;;13.90;70.30;;;;;;5103791;28;20064;-41
2021/04/30 11:32:54;;;;;;;15.02;13.35;;;13.90;70.00;;;;;;5079071;28;20048;-41
2021/04/30 11:35:26;;;;;;;14.57;12.50;;;13.80;70.70;;;;;;5106459;28;20044;-42
2021/04/30 11:37:57;;;;;;;13.35;11.93;;;13.70;70.50;;;;;;5101325;28;20526;-42
2021/04/30 11:40:28;;;;;;;17.42;12.38;;;13.70;70.90;;;;;;5107702;28;20050;-42
2021/04/30 11:43:05;;;;;;;14.35;12.88;;;13.60;70.80;;;;;;5104379;28;20078;-42
2021/04/30 11:45:36;;;;;;;14.60;12.20;;;13.40;71.20;;;;;;5104064;28;20848;-43
2021/04/30 11:48:09;;;;;;;14.00;12.60;;;13.40;70.20;;;;;;5104315;28;20093;-44
2021/04/30 11:50:38;;;;;;;15.40;12.63;;;13.30;70.70;;;;;;5105668;28;20051;-42
2021/04/30 11:53:12;;;;;;;17.30;14.75;;;13.30;71.20;;;;;;5104532;28;20139;-41
2021/04/30 11:55:40;;;;;;;17.25;15.45;;;13.40;71.30;;;;;;5105108;28;20047;-42
2021/04/30 11:58:09;;;;;;;20.42;16.80;;;13.50;72.20;;;;;;5105070;28;20058;-41
2021/04/30 12:00:38;;;;;;;17.02;14.98;;;13.60;71.10;;;;;;5108604;28;20043;-42
2021/04/30 12:03:08;;;;;;;21.77;19.08;;;13.80;71.60;;;;;;5099821;28;20051;-44
2021/04/30 12:05:37;;;;;;;20.25;16.05;;;14.00;71.00;;;;;;5104420;28;20054;-43
2021/04/30 12:08:16;;;;;;;18.15;15.18;;;14.30;68.50;;;;;;5105609;28;20484;-43
2021/04/30 12:10:44;;;;;;;19.13;16.90;;;14.80;69.80;;;;;;5101300;28;20055;-45
2021/04/30 12:13:22;;;;;;;18.08;15.40;;;15.10;69.90;;;;;;5106701;28;20051;-44
2021/04/30 12:15:51;;;;;;;16.58;14.95;;;14.80;69.10;;;;;;5108879;28;20055;-41
2021/04/30 12:18:20;;;;;;;28.50;24.60;;;14.70;69.80;;;;;;5106424;28;20047;-40
2021/04/30 12:20:49;;;;;;;21.75;19.55;;;14.60;71.00;;;;;;5105721;28;20135;-40
2021/04/30 12:23:17;;;;;;;22.60;19.75;;;14.30;71.40;;;;;;5104689;28;20441;-40
2021/04/30 12:25:49;;;;;;;30.75;26.50;;;14.20;71.50;;;;;;5084847;28;20048;-40
2021/04/30 12:28:21;;;;;;;17.95;16.13;;;14.20;71.10;;;;;;5104990;28;20089;-42
2021/04/30 12:31:07;;;;;;;19.13;17.30;;;14.00;70.90;;;;;;5109852;28;20035;-42
2021/04/30 12:33:47;;;;;;;17.63;16.02;;;13.80;71.90;;;;;;5105597;28;20054;-43
2021/04/30 12:36:22;;;;;;;50.90;45.47;;;13.60;74.20;;;;;;5091670;28;20594;-42
2021/04/30 12:39:04;;;;;;;16.77;15.15;;;13.60;74.40;;;;;;5092136;28;20115;-41
2021/04/30 12:41:38;;;;;;;33.40;30.02;;;13.60;72.50;;;;;;5104777;28;20048;-45
2021/04/30 12:44:08;;;;;;;21.30;17.10;;;13.70;73.80;;;;;;5084657;28;20051;-43
2021/04/30 12:46:39;;;;;;;18.80;16.88;;;13.80;73.30;;;;;;5089019;28;20035;-42
2021/04/30 12:49:10;;;;;;;26.55;23.92;;;14.10;73.00;;;;;;5104574;28;20051;-43